createdAt,value
2023-04-19T00:00:57.365Z,100250.58
2023-04-19T00:03:28.073Z,100243.44
2023-04-19T00:05:59.274Z,100244.86
2023-04-19T00:08:29.361Z,100238.30
2023-04-19T00:11:21.194Z,100235.83
2023-04-19T00:13:51.715Z,100237.22
2023-04-19T00:16:21.876Z,100236.59
2023-04-19T00:18:52.766Z,100234.16
2023-04-19T00:21:23.791Z,100228.41
2023-04-19T00:23:54.191Z,100231.27
2023-04-19T00:26:24.571Z,100229.63
2023-04-19T00:28:55.286Z,100234.11
2023-04-19T00:31:25.668Z,100232.47
2023-04-19T00:33:56.750Z,100231.05
2023-04-19T00:36:29.324Z,100225.12
2023-04-19T00:38:59.444Z,100229.80
2023-04-19T00:41:29.563Z,100231.84
2023-04-19T00:44:01.318Z,100221.40
2023-04-19T00:46:31.661Z,100223.44
2023-04-19T00:49:03.395Z,100225.47
2023-04-19T00:51:34.953Z,100226.70
2023-04-19T00:54:08.556Z,100222.59
2023-04-19T00:56:39.896Z,100220.53
2023-04-19T00:59:12.072Z,100214.60
2023-04-19T01:01:42.446Z,100216.02
2023-04-19T01:04:13.079Z,100216.82
2023-04-19T01:06:44.260Z,100212.11
2023-04-19T01:09:14.176Z,100213.94
2023-04-19T01:11:44.713Z,100208.00
2023-04-19T01:14:15.519Z,100212.69
2023-04-19T01:16:50.468Z,100219.41
2023-04-19T01:19:20.995Z,100202.23
2023-04-19T01:21:52.347Z,100208.77
2023-04-19T01:24:22.886Z,100209.96
2023-04-19T01:26:53.593Z,100206.06
2023-04-19T01:29:23.525Z,100199.11
2023-04-19T01:31:54.160Z,100203.80
2023-04-19T01:34:24.583Z,100198.25
2023-04-19T01:36:54.885Z,100204.78
2023-04-19T01:39:27.890Z,100203.72
2023-04-19T01:41:58.221Z,100200.20
2023-04-19T01:44:28.728Z,100201.42
2023-04-19T01:46:58.874Z,100197.31
2023-04-19T01:49:29.380Z,100198.32
2023-04-19T01:52:00.339Z,100200.17
2023-04-19T01:54:30.630Z,100195.88
2023-04-19T01:57:01.157Z,100195.88
2023-04-19T01:59:32.298Z,100190.13
2023-04-19T02:02:02.536Z,100189.50
2023-04-19T02:04:35.412Z,100189.70
2023-04-19T02:07:05.733Z,100195.19
2023-04-19T02:09:37.925Z,100192.92
2023-04-19T02:12:09.870Z,100192.92
2023-04-19T02:14:40.385Z,100188.84
2023-04-19T02:17:12.560Z,100189.02
2023-04-19T02:19:42.871Z,100186.57
2023-04-19T02:22:16.481Z,100185.11
2023-04-19T02:24:50.478Z,100192.44
2023-04-19T02:27:20.821Z,100189.98
2023-04-19T02:29:53.586Z,100189.54
2023-04-19T02:32:23.748Z,100195.85
2023-04-19T02:35:09.386Z,100186.64
2023-04-19T02:37:40.322Z,100193.16
2023-04-19T02:40:12.474Z,100188.25
2023-04-19T02:42:43.423Z,100190.44
2023-04-19T02:45:15.181Z,100187.16
2023-04-19T02:47:46.360Z,100181.44
2023-04-19T02:50:18.234Z,100179.80
2023-04-19T02:52:52.047Z,100179.34
2023-04-19T02:55:24.027Z,100178.72
2023-04-19T02:58:01.531Z,100179.92
2023-04-19T03:00:33.321Z,100176.65
2023-04-19T03:03:09.448Z,100180.48
2023-04-19T03:05:39.680Z,100180.86
2023-04-19T03:08:11.630Z,100174.30
2023-04-19T03:10:42.367Z,100177.53
2023-04-19T03:13:12.689Z,100177.70
2023-04-19T03:15:43.669Z,100172.16
2023-04-19T03:18:14.586Z,100171.35
2023-04-19T03:20:45.494Z,100173.37
2023-04-19T03:23:16.223Z,100177.20
2023-04-19T03:25:46.568Z,100169.59
2023-04-19T03:28:38.587Z,100176.91
2023-04-19T03:31:21.458Z,100176.48
2023-04-19T03:33:53.348Z,100173.20
2023-04-19T03:36:26.749Z,100174.38
2023-04-19T03:38:57.065Z,100169.46
2023-04-19T03:41:28.030Z,100176.59
2023-04-19T03:44:17.798Z,100181.27
2023-04-19T03:49:44.647Z,100169.58
2023-04-19T03:52:15.784Z,100176.52
2023-04-19T03:54:46.101Z,100165.28
2023-04-19T03:57:27.893Z,100184.45
2023-04-19T03:59:58.634Z,100175.70
2023-04-19T04:02:29.240Z,100180.80
2023-04-19T04:05:00.293Z,100185.92
2023-04-19T04:07:31.031Z,100186.73
2023-04-19T04:10:01.846Z,100174.12
2023-04-19T04:12:33.931Z,100180.89
2023-04-19T04:15:07.741Z,100178.03
2023-04-19T04:17:38.790Z,100173.20
2023-04-19T04:20:16.073Z,100176.91
2023-04-19T04:22:46.269Z,100176.73
2023-04-19T04:25:20.569Z,100172.73
2023-04-19T04:27:54.112Z,100178.47
2023-04-19T04:30:25.849Z,100182.58
2023-04-19T04:32:58.885Z,100182.38
2023-04-19T04:35:30.195Z,100178.72
2023-04-19T04:38:21.564Z,100182.83
2023-04-19T04:40:56.639Z,100183.46
2023-04-19T04:43:29.352Z,100183.26
2023-04-19T04:45:59.615Z,100189.82
2023-04-19T04:48:34.780Z,100187.80
2023-04-19T04:51:07.570Z,100190.07
2023-04-19T04:53:38.503Z,100195.63
2023-04-19T04:56:10.888Z,100187.50
2023-04-19T04:58:40.992Z,100191.20
2023-04-19T05:01:17.009Z,100194.31
2023-04-19T05:03:47.603Z,100192.71
2023-04-19T05:06:21.391Z,100183.57
2023-04-19T05:08:51.706Z,100187.48
2023-04-19T05:11:34.356Z,100190.38
2023-04-19T05:14:04.838Z,100186.13
2023-04-19T05:16:36.022Z,100191.67
2023-04-19T05:19:06.508Z,100195.58
2023-04-19T05:21:40.518Z,100192.36
2023-04-19T05:24:15.960Z,100187.47
2023-04-19T05:26:47.545Z,100189.56
2023-04-19T05:29:18.855Z,100190.81
2023-04-19T05:31:54.122Z,100184.73
2023-04-19T05:34:38.087Z,100184.96
2023-04-19T05:37:08.470Z,100188.47
2023-04-19T05:39:40.210Z,100179.52
2023-04-19T05:42:11.970Z,100176.08
2023-04-19T05:44:42.299Z,100177.95
2023-04-19T05:47:12.423Z,100174.51
2023-04-19T05:50:14.515Z,100172.52
2023-04-19T05:52:50.349Z,100179.30
2023-04-19T05:55:21.483Z,100177.48
2023-04-19T05:57:52.190Z,100169.52
2023-04-19T06:00:27.921Z,100170.17
2023-04-19T06:03:02.295Z,100169.16
2023-04-19T06:05:32.843Z,100169.63
2023-04-19T06:08:03.409Z,100163.31
2023-04-19T06:10:44.517Z,100162.10
2023-04-19T06:13:21.795Z,100158.23
2023-04-19T06:15:52.372Z,100160.28
2023-04-19T06:18:22.456Z,100164.59
2023-04-19T06:20:55.021Z,100166.02
2023-04-19T06:23:25.140Z,100161.30
2023-04-19T06:25:55.676Z,100159.64
2023-04-19T06:28:26.211Z,100156.58
2023-04-19T06:30:56.930Z,100153.89
2023-04-19T06:33:27.453Z,100159.37
2023-04-19T06:35:57.772Z,100151.77
2023-04-19T06:38:28.298Z,100150.92
2023-04-19T06:40:58.621Z,100152.92
2023-04-19T06:43:28.948Z,100149.63
2023-04-19T06:46:04.144Z,100141.99
2023-04-19T06:48:35.359Z,100138.65
2023-04-19T06:51:07.492Z,100141.86
2023-04-19T06:53:37.813Z,100140.97
2023-04-19T06:56:09.726Z,100143.75
2023-04-19T06:58:42.145Z,100144.69
2023-04-19T07:01:12.736Z,100146.65
2023-04-19T07:03:43.356Z,100142.23
2023-04-19T07:06:14.136Z,100145.82
2023-04-19T07:11:20.244Z,100149.63
2023-04-19T07:13:51.658Z,100144.02
2023-04-19T07:16:21.805Z,100145.95
2023-04-19T07:18:51.906Z,100150.83
2023-04-19T07:21:22.213Z,100141.69
2023-04-19T07:23:52.551Z,100147.92
2023-04-19T07:26:25.524Z,100139.39
2023-04-19T07:28:56.696Z,100137.15
2023-04-19T07:31:28.143Z,100137.32
2023-04-19T07:33:58.745Z,100128.53
2023-04-19T07:36:30.297Z,100132.89
2023-04-19T07:39:00.619Z,100142.21
2023-04-19T07:41:30.943Z,100138.30
2023-04-19T07:44:01.475Z,100149.86
2023-04-19T07:46:31.869Z,100141.25
2023-04-19T07:49:04.482Z,100134.52
2023-04-19T07:51:34.893Z,100140.34
2023-04-19T07:54:05.028Z,100135.11
2023-04-19T07:56:36.525Z,100137.77
2023-04-19T07:59:09.684Z,100139.88
2023-04-19T08:01:39.970Z,100136.48
2023-04-19T08:04:10.774Z,100129.72
2023-04-19T08:06:44.799Z,100137.75
2023-04-19T08:09:14.800Z,100133.08
2023-04-19T08:11:45.467Z,100138.28
2023-04-19T08:14:28.400Z,100132.55
2023-04-19T08:19:38.579Z,100122.05
2023-04-19T08:22:09.292Z,100120.09
2023-04-19T08:24:39.027Z,100128.23
2023-04-19T08:27:09.322Z,100114.92
2023-04-19T08:29:39.453Z,100112.91
2023-04-19T08:32:10.040Z,100106.59
2023-04-19T08:34:40.732Z,100107.00
2023-04-19T08:37:11.025Z,100110.59
2023-04-19T08:39:41.142Z,100109.62
2023-04-19T08:42:24.837Z,100106.77
2023-04-19T08:47:51.990Z,100102.48
2023-04-19T08:50:34.334Z,100106.47
2023-04-19T08:56:03.529Z,100100.34
2023-04-19T08:58:57.050Z,100100.75
2023-04-19T09:01:35.368Z,100106.03
2023-04-19T09:04:26.377Z,100097.63
2023-04-19T09:06:58.102Z,100095.13
2023-04-19T09:09:38.772Z,100103.38
2023-04-19T09:12:18.781Z,100095.16
2023-04-19T09:17:22.155Z,100084.84
2023-04-19T09:19:52.252Z,100084.13
2023-04-19T09:22:22.981Z,100094.50
2023-04-19T09:25:34.010Z,100090.80
2023-04-19T09:27:44.738Z,100097.60
2023-04-19T09:30:29.997Z,100089.36
2023-04-19T09:33:02.692Z,100086.20
2023-04-19T09:35:42.914Z,100083.50
2023-04-19T09:38:13.249Z,100086.15
2023-04-19T09:40:47.190Z,100085.59
2023-04-19T09:43:57.537Z,100080.77
2023-04-19T09:46:35.684Z,100083.46
2023-04-19T09:49:27.885Z,100078.55
2023-04-19T09:52:01.046Z,100076.64
2023-04-19T09:54:32.390Z,100083.41
2023-04-19T09:57:03.340Z,100085.04
2023-04-19T09:59:34.061Z,100072.66
2023-04-19T10:02:06.869Z,100074.00
2023-04-19T10:09:53.650Z,100068.86
2023-04-19T10:14:59.226Z,100065.92
2023-04-19T10:17:29.690Z,100073.21
2023-04-19T10:20:06.258Z,100066.77
2023-04-19T10:22:38.920Z,100068.14
2023-04-19T10:25:17.089Z,100072.50
2023-04-19T10:27:48.598Z,100068.73
2023-04-19T10:30:23.421Z,100059.56
2023-04-19T10:32:55.697Z,100062.57
2023-04-19T10:35:28.841Z,100060.50
2023-04-19T10:38:07.217Z,100052.16
2023-04-19T10:41:03.424Z,100052.16
2023-04-19T10:43:34.840Z,100054.60
2023-04-19T10:46:13.716Z,100053.22
2023-04-19T10:48:54.069Z,100048.88
2023-04-19T10:51:27.396Z,100047.25
2023-04-19T10:53:59.199Z,100049.94
2023-04-19T10:57:10.878Z,100043.49
2023-04-19T10:59:43.729Z,100044.28
2023-04-19T11:02:32.201Z,100035.66
2023-04-19T11:05:03.863Z,100036.45
2023-04-19T11:07:42.462Z,100047.73
2023-04-19T11:10:13.487Z,100039.86
2023-04-19T11:12:46.811Z,100039.54
2023-04-19T11:15:16.748Z,100040.05
2023-04-19T11:18:01.017Z,100035.43
2023-04-19T11:20:42.947Z,100036.77
2023-04-19T11:23:19.029Z,100041.32
2023-04-19T11:25:52.630Z,100039.14
2023-04-19T11:28:24.194Z,100030.28
2023-04-19T11:30:56.791Z,100027.59
2023-04-19T11:33:28.307Z,100027.27
2023-04-19T11:35:58.429Z,100020.55
2023-04-19T11:38:30.395Z,100023.23
2023-04-19T11:41:01.732Z,100014.89
2023-04-19T11:43:36.588Z,100024.34
2023-04-19T11:46:11.893Z,100014.70
2023-04-19T11:48:52.800Z,100014.19
2023-04-19T11:51:23.316Z,100009.91
2023-04-19T11:53:53.653Z,100019.09
2023-04-19T11:56:24.366Z,100005.88
2023-04-19T11:58:58.914Z,100009.36
2023-04-19T12:01:31.806Z,99990.02
2023-04-19T12:04:04.710Z,99994.61
2023-04-19T12:06:35.078Z,99997.61
2023-04-19T12:09:08.879Z,99991.72
2023-04-19T12:11:45.787Z,99985.55
2023-04-19T12:14:17.808Z,99989.34
2023-04-19T12:17:05.577Z,99986.13
2023-04-19T12:19:42.413Z,99987.20
2023-04-19T12:22:14.376Z,99971.88
2023-04-19T12:24:43.800Z,99972.67
2023-04-19T12:27:17.513Z,99971.33
2023-04-19T12:29:47.926Z,99969.70
2023-04-19T12:32:18.653Z,99971.33
2023-04-19T12:34:49.392Z,99967.56
2023-04-19T12:37:19.532Z,99962.43
2023-04-19T12:39:49.830Z,99969.95
2023-04-19T12:42:20.146Z,99964.30
2023-04-19T12:44:50.677Z,99960.23
2023-04-19T12:47:21.023Z,99957.81
2023-04-19T12:49:51.112Z,99957.50
2023-04-19T12:52:21.852Z,99958.02
2023-04-19T12:54:52.581Z,99957.75
2023-04-19T12:57:23.942Z,99955.57
2023-04-19T12:59:54.467Z,99968.47
2023-04-19T13:02:25.124Z,99964.67
2023-04-19T13:04:55.852Z,99965.98
2023-04-19T13:07:26.243Z,99972.70
2023-04-19T13:09:57.191Z,99964.88
2023-04-19T13:12:28.383Z,99958.15
2023-04-19T13:14:58.860Z,99958.70
2023-04-19T13:17:30.217Z,99958.42
2023-04-19T13:20:00.524Z,99957.36
2023-04-19T13:22:31.046Z,99966.25
2023-04-19T13:25:01.179Z,99962.73
2023-04-19T13:27:32.513Z,99963.01
2023-04-19T13:30:03.244Z,99959.77
2023-04-19T13:32:33.239Z,99962.39
2023-04-19T13:35:03.684Z,99962.91
2023-04-19T13:37:33.808Z,99959.10
2023-04-19T13:40:17.929Z,99961.98
2023-04-19T13:42:50.232Z,99954.70
2023-04-19T13:45:20.751Z,99950.09
2023-04-19T13:47:51.913Z,99957.30
2023-04-19T13:50:23.238Z,99954.30
2023-04-19T13:55:43.137Z,99957.41
2023-04-19T13:58:14.214Z,99954.66
2023-04-19T14:00:44.419Z,99954.05
2023-04-19T14:03:14.717Z,99953.20
2023-04-19T14:05:45.496Z,99957.97
2023-04-19T14:08:15.778Z,99955.23
2023-04-19T14:10:46.527Z,99966.97
2023-04-19T14:13:16.630Z,99976.53
2023-04-19T14:15:47.380Z,99975.41
2023-04-19T14:18:17.524Z,99977.67
2023-04-19T14:20:47.832Z,99977.87
2023-04-19T14:23:20.175Z,99983.60
2023-04-19T14:25:50.947Z,99978.26
2023-04-19T14:28:23.973Z,99971.38
2023-04-19T14:30:54.425Z,99975.54
2023-04-19T14:33:26.301Z,99974.33
2023-04-19T14:35:57.523Z,99972.28
2023-04-19T14:38:28.285Z,99985.05
2023-04-19T14:40:58.217Z,99985.22
2023-04-19T14:43:28.706Z,99995.28
2023-04-19T14:45:58.868Z,100000.41
2023-04-19T14:48:28.798Z,99997.89
2023-04-19T14:50:59.056Z,99995.34
2023-04-19T14:53:29.390Z,99993.63
2023-04-19T14:56:00.121Z,99998.89
2023-04-19T14:58:30.836Z,99996.38
2023-04-19T15:01:10.235Z,99989.05
2023-04-19T15:03:41.400Z,99993.83
2023-04-19T15:06:12.051Z,100003.87
2023-04-19T15:08:42.779Z,100002.62
2023-04-19T15:11:13.101Z,100002.77
2023-04-19T15:13:43.236Z,100006.72
2023-04-19T15:16:13.783Z,100011.39
2023-04-19T15:18:43.817Z,100011.53
2023-04-19T15:21:13.984Z,100008.97
2023-04-19T15:23:43.897Z,100011.90
2023-04-19T15:26:14.222Z,100001.09
2023-04-19T15:28:44.750Z,100004.45
2023-04-19T15:31:15.942Z,100006.44
2023-04-19T15:33:46.424Z,100019.70
2023-04-19T15:36:16.943Z,100024.14
2023-04-19T15:38:47.281Z,100024.80
2023-04-19T15:41:18.828Z,100025.26
2023-04-19T15:43:49.555Z,100024.92
2023-04-19T15:46:19.894Z,100019.00
2023-04-19T15:48:50.407Z,100012.48
2023-04-19T15:51:21.144Z,100007.81
2023-04-19T15:53:51.700Z,100002.13
2023-04-19T15:56:21.580Z,99995.95
2023-04-19T15:58:52.105Z,99999.92
2023-04-19T16:01:23.292Z,99996.88
2023-04-19T16:03:53.641Z,99988.53
2023-04-19T16:06:25.539Z,99989.80
2023-04-19T16:08:55.652Z,99993.75
2023-04-19T16:11:26.639Z,99987.58
2023-04-19T16:13:56.709Z,99990.72
2023-04-19T16:16:30.507Z,99995.27
2023-04-19T16:19:01.681Z,99990.12
2023-04-19T16:21:32.382Z,99985.03
2023-04-19T16:24:02.370Z,99989.80
2023-04-19T16:26:33.038Z,99993.73
2023-04-19T16:29:03.358Z,99995.81
2023-04-19T16:31:33.684Z,99998.36
2023-04-19T16:34:04.225Z,100004.17
2023-04-19T16:36:34.533Z,100001.73
2023-04-19T16:39:05.668Z,100002.20
2023-04-19T16:41:36.197Z,100008.21
2023-04-19T16:44:06.544Z,100015.51
2023-04-19T16:46:36.859Z,100022.67
2023-04-19T16:49:07.200Z,100016.47
2023-04-19T16:51:37.497Z,100018.66
2023-04-19T16:54:07.813Z,100017.10
2023-04-19T16:56:37.936Z,100022.72
2023-04-19T16:59:08.251Z,100021.39
2023-04-19T17:01:38.429Z,100021.45
2023-04-19T17:04:09.559Z,100027.03
2023-04-19T17:06:40.456Z,100022.59
2023-04-19T17:09:10.772Z,100025.70
2023-04-19T17:11:40.899Z,100028.81
2023-04-19T17:14:11.219Z,100032.52
2023-04-19T17:16:41.543Z,100031.48
2023-04-19T17:19:12.064Z,100034.95
2023-04-19T17:21:42.593Z,100032.52
2023-04-19T17:24:13.329Z,100037.02
2023-04-19T17:26:43.647Z,100042.60
2023-04-19T17:29:13.972Z,100053.48
2023-04-19T17:31:44.777Z,100047.78
2023-04-19T17:34:15.640Z,100058.30
2023-04-19T17:36:45.763Z,100066.15
2023-04-19T17:39:15.646Z,100062.50
2023-04-19T17:41:46.611Z,100069.30
2023-04-19T17:44:17.545Z,100075.91
2023-04-19T17:46:48.099Z,100072.05
2023-04-19T17:49:21.661Z,100076.19
2023-04-19T17:51:52.814Z,100074.98
2023-04-19T17:54:23.756Z,100077.06
2023-04-19T17:56:55.308Z,100073.40
2023-04-19T17:59:26.035Z,100082.87
2023-04-19T18:01:57.307Z,100089.47
2023-04-19T18:04:27.845Z,100083.13
2023-04-19T18:06:59.062Z,100088.09
2023-04-19T18:09:29.623Z,100093.86
2023-04-19T18:12:02.360Z,100091.83
2023-04-19T18:14:35.138Z,100092.69
2023-04-19T18:17:05.883Z,100100.31
2023-04-19T18:19:40.039Z,100100.14
2023-04-19T18:22:10.822Z,100098.94
2023-04-19T18:24:43.206Z,100103.06
2023-04-19T18:27:14.128Z,100101.02
2023-04-19T18:29:44.658Z,100105.14
2023-04-19T18:32:16.236Z,100102.88
2023-04-19T18:34:47.354Z,100106.80
2023-04-19T18:37:19.517Z,100105.36
2023-04-19T18:39:49.838Z,100105.59
2023-04-19T18:42:20.770Z,100106.02
2023-04-19T18:44:54.234Z,100103.55
2023-04-19T18:47:27.252Z,100102.14
2023-04-19T18:50:05.176Z,100106.03
2023-04-19T18:52:38.781Z,100098.27
2023-04-19T18:55:13.316Z,100093.14
2023-04-19T18:57:43.808Z,100099.72
2023-04-19T19:00:19.609Z,100101.55
2023-04-19T19:02:50.977Z,100100.75
2023-04-19T19:05:22.078Z,100106.50
2023-04-19T19:07:52.815Z,100115.52
2023-04-19T19:10:41.281Z,100107.12
2023-04-19T19:13:15.454Z,100107.34
2023-04-19T19:15:46.203Z,100104.68
2023-04-19T19:18:18.126Z,100109.40
2023-04-19T19:20:51.260Z,100120.84
2023-04-19T19:23:34.689Z,100115.52
2023-04-19T19:26:05.927Z,100112.86
2023-04-19T19:28:37.877Z,100109.40
2023-04-19T19:31:09.255Z,100111.45
2023-04-19T19:33:40.870Z,100110.63
2023-04-19T19:36:11.459Z,100122.91
2023-04-19T19:38:42.834Z,100116.97
2023-04-19T21:15:50.857Z,100132.48
2023-04-19T21:18:22.372Z,100138.83
2023-04-19T21:20:52.899Z,100129.63
2023-04-19T21:23:25.269Z,100137.01
2023-04-19T21:25:55.589Z,100133.73
2023-04-19T21:28:26.325Z,100131.30
2023-04-19T21:30:57.269Z,100133.36
2023-04-19T21:33:28.816Z,100132.75
2023-04-19T21:36:00.366Z,100124.16
2023-04-19T21:38:31.714Z,100118.22
2023-04-19T21:41:02.046Z,100121.31
2023-04-19T21:43:32.371Z,100118.04
2023-04-19T21:46:04.578Z,100120.09
2023-04-19T21:48:36.144Z,100122.14
2023-04-19T21:51:08.377Z,100127.89
2023-04-19T21:53:39.184Z,100116.63
2023-04-19T21:56:10.325Z,100112.53
2023-04-19T21:58:40.658Z,100113.78
2023-04-19T22:01:11.021Z,100110.52
2023-04-19T22:03:41.471Z,100112.56
2023-04-19T22:06:16.687Z,100112.15
2023-04-19T22:08:48.082Z,100112.56
2023-04-19T22:11:19.635Z,100110.33
2023-04-19T22:13:50.177Z,100108.91
2023-04-19T22:16:21.118Z,100106.66
2023-04-19T22:18:51.257Z,100112.40
2023-04-19T22:21:21.535Z,100107.50
2023-04-19T22:23:52.089Z,100114.03
2023-04-19T22:26:22.588Z,100096.66
2023-04-19T22:28:53.948Z,100105.05
2023-04-19T22:31:23.858Z,100098.52
2023-04-19T22:33:53.768Z,100091.56
2023-04-19T22:36:27.771Z,100091.14
2023-04-19T22:38:58.916Z,100099.53
2023-04-19T22:41:28.824Z,100093.82
2023-04-19T22:43:58.952Z,100104.64
2023-04-19T22:46:29.292Z,100103.84
2023-04-19T22:48:59.173Z,100108.74
2023-04-19T22:51:29.851Z,100105.47
2023-04-19T22:54:00.232Z,100106.72
2023-04-19T22:56:31.582Z,100114.08
2023-04-19T22:59:17.064Z,100111.61
2023-04-19T23:01:48.217Z,100108.74
2023-04-19T23:04:19.511Z,100113.86
2023-04-19T23:06:49.665Z,100113.65
2023-04-19T23:09:19.993Z,100116.91
2023-04-19T23:11:50.113Z,100111.19
2023-04-19T23:14:20.227Z,100114.87
2023-04-19T23:16:51.980Z,100110.58
2023-04-19T23:19:22.799Z,100098.31
2023-04-19T23:21:53.452Z,100103.62
2023-04-19T23:24:24.997Z,100101.58
2023-04-19T23:26:55.122Z,100099.73
2023-04-19T23:29:25.848Z,100092.78
2023-04-19T23:31:56.991Z,100088.30
2023-04-19T23:34:27.325Z,100087.68
2023-04-19T23:36:57.455Z,100085.83
2023-04-19T23:39:27.555Z,100080.52
2023-04-19T23:41:57.670Z,100075.42
2023-04-19T23:44:29.840Z,100078.88
2023-04-19T23:47:00.052Z,100075.61
2023-04-19T23:49:31.300Z,100074.19
2023-04-19T23:52:02.443Z,100074.37
2023-04-19T23:54:32.360Z,100077.25
2023-04-19T23:57:02.676Z,100067.62
2023-04-19T23:59:32.800Z,100074.14
